Time;durP1;ratioP1;P1;durP2;ratioP2;P2;SDS_P1;SDS_P2;PMS_P1;PMS_P2;Temp;Humidity;BMP_temperature;BMP_pressure;BME280_temperature;BME280_humidity;BME280_pressure;Samples;Min_cycle;Max_cycle;Signal;HPM_P1;HPM_P2
2021/08/18 14:53:02;;;;;;;2.75;2.60;;;20.10;99.90;;;19.57;81.59;98013.16;5253414;27;20640;-60
2021/08/18 14:55:35;;;;;;;2.65;2.50;;;19.70;99.90;;;19.97;81.55;98019.28;5232382;28;20223;-61
2021/08/18 14:58:08;;;;;;;2.90;2.70;;;19.80;99.90;;;20.27;77.78;98013.91;5224830;28;20225;-61
2021/08/18 15:00:41;;;;;;;2.60;2.40;;;19.80;99.90;;;20.36;77.78;98019.28;5233656;28;20201;-61
2021/08/18 15:03:15;;;;;;;2.67;2.47;;;19.80;99.90;;;20.57;75.38;98007.63;5235920;28;20200;-60
2021/08/18 15:05:49;;;;;;;2.60;2.50;;;19.80;99.90;;;20.62;74.88;98009.47;5231207;28;20213;-61
2021/08/18 15:08:23;;;;;;;3.00;2.80;;;19.90;99.90;;;20.65;75.95;98008.66;5222646;28;20579;-61
2021/08/18 15:10:56;;;;;;;2.42;2.22;;;19.80;99.90;;;20.75;73.46;98007.13;5223030;28;20196;-60
2021/08/18 15:13:30;;;;;;;2.20;2.10;;;19.90;99.90;;;20.82;72.28;98004.66;5222198;28;20206;-61
2021/08/18 15:16:03;;;;;;;2.55;2.45;;;19.90;99.90;;;20.89;72.50;98006.53;5226534;28;20205;-60
2021/08/18 15:18:37;;;;;;;2.42;2.33;;;19.80;99.90;;;20.93;73.63;98004.84;5227381;28;20213;-59
2021/08/18 15:21:10;;;;;;;2.35;2.25;;;19.80;99.90;;;20.96;72.70;98004.03;5232709;28;20215;-58
2021/08/18 15:23:44;;;;;;;2.78;2.35;;;19.90;99.90;;;20.94;72.28;98009.19;5232859;28;20283;-59
2021/08/18 15:26:17;;;;;;;2.50;2.30;;;19.80;99.90;;;20.73;74.00;98014.00;5233213;28;20484;-57
2021/08/18 15:28:50;;;;;;;2.70;2.50;;;19.70;99.90;;;20.58;75.64;98002.47;5226504;28;20306;-59
2021/08/18 15:31:23;;;;;;;2.65;2.53;;;19.60;99.90;;;20.56;76.50;98009.34;5233456;28;20225;-57
2021/08/18 15:33:56;;;;;;;2.78;2.60;;;19.50;99.90;;;20.56;76.65;98017.13;5225737;28;20272;-59
2021/08/18 15:36:29;;;;;;;2.28;2.17;;;19.50;99.90;;;20.66;75.78;98008.69;5225737;28;20201;-59
2021/08/18 15:39:04;;;;;;;2.20;2.10;;;19.60;99.90;;;20.74;75.33;98010.56;5225571;28;20304;-59
2021/08/18 15:41:37;;;;;;;2.38;2.28;;;19.60;99.90;;;20.75;74.81;98010.59;5227860;28;20568;-57
2021/08/18 15:44:10;;;;;;;2.30;2.20;;;19.60;99.90;;;20.77;75.14;98008.00;5229120;28;20464;-61
2021/08/18 15:46:44;;;;;;;2.53;2.30;;;19.70;99.90;;;20.80;75.08;98010.66;5225302;28;20665;-59
2021/08/18 15:49:17;;;;;;;2.33;2.22;;;19.70;99.90;;;20.81;75.53;97999.44;5231119;28;20228;-58
2021/08/18 15:51:51;;;;;;;2.47;2.28;;;19.70;99.90;;;20.83;71.22;97998.63;5230780;28;20230;-59
2021/08/18 15:54:25;;;;;;;2.25;2.15;;;19.70;99.90;;;20.81;72.82;98000.31;5230828;28;20197;-59
2021/08/18 15:56:58;;;;;;;2.30;2.10;;;19.70;99.90;;;20.78;72.86;97992.47;5225064;28;20205;-59
2021/08/18 15:59:31;;;;;;;2.33;2.10;;;19.60;99.90;;;20.70;74.39;97989.72;5226522;28;20571;-59
2021/08/18 16:02:04;;;;;;;2.30;2.03;;;19.60;99.90;;;20.63;75.48;97993.06;5237051;28;20219;-59
2021/08/18 16:04:38;;;;;;;2.08;1.98;;;19.50;99.90;;;20.57;76.42;97989.44;5205777;28;20194;-59
2021/08/18 16:07:11;;;;;;;2.13;2.00;;;19.50;99.90;;;20.54;77.17;97985.06;5211335;28;20223;-59
2021/08/18 16:09:46;;;;;;;2.38;2.22;;;19.50;99.90;;;20.43;77.30;97979.63;5214005;28;20209;-59
2021/08/18 16:12:19;;;;;;;2.50;2.40;;;19.40;99.90;;;20.41;77.10;97986.50;5205912;28;20308;-59
2021/08/18 16:14:52;;;;;;;2.00;1.90;;;19.30;99.90;;;20.36;77.66;97979.47;5215644;28;20209;-60
2021/08/18 16:17:26;;;;;;;2.25;2.15;;;19.30;99.90;;;20.36;77.26;97982.06;5220382;28;20217;-58
2021/08/18 16:19:59;;;;;;;2.40;2.30;;;19.30;99.90;;;20.31;77.06;97986.28;5218973;28;20748;-59
2021/08/18 16:22:32;;;;;;;2.38;2.28;;;19.20;99.90;;;20.28;77.49;97979.31;5212179;28;20189;-59
2021/08/18 16:25:07;;;;;;;2.38;2.28;;;19.20;99.90;;;20.25;77.49;97979.25;5211369;28;20200;-59
2021/08/18 16:27:40;;;;;;;2.42;2.33;;;19.20;99.90;;;20.19;77.54;97980.00;5214993;28;20221;-59
2021/08/18 16:30:15;;;;;;;3.05;2.20;;;19.10;99.90;;;20.12;78.18;97975.53;5215731;28;20205;-61
2021/08/18 16:32:58;;;;;;;2.78;2.35;;;19.10;99.90;;;20.10;79.08;97974.63;5219811;28;20225;-57
2021/08/18 16:35:32;;;;;;;2.33;2.22;;;19.10;99.90;;;20.13;79.79;97966.88;5214560;28;20228;-61
2021/08/18 16:38:05;;;;;;;2.67;2.47;;;19.10;99.90;;;20.16;79.77;97968.69;5219600;28;20232;-61
2021/08/18 16:40:39;;;;;;;2.75;2.55;;;19.20;99.90;;;20.20;80.10;97965.28;5208053;28;20205;-62
2021/08/18 16:43:12;;;;;;;2.80;2.60;;;19.20;99.90;;;20.23;80.03;97963.66;5217209;28;20646;-61
2021/08/18 16:45:45;;;;;;;2.20;2.10;;;19.20;99.90;;;20.24;79.26;97955.00;5224630;28;20200;-61
2021/08/18 16:48:19;;;;;;;2.40;2.20;;;19.20;99.90;;;20.28;79.31;97962.84;5217458;28;20359;-62
2021/08/18 16:50:52;;;;;;;2.40;2.30;;;19.30;99.90;;;20.21;79.26;97956.69;5225943;28;20213;-63
2021/08/18 16:53:25;;;;;;;2.22;2.13;;;19.20;99.90;;;20.16;77.68;97958.28;5222804;28;20735;-64
2021/08/18 16:55:59;;;;;;;2.70;2.50;;;19.10;99.90;;;20.09;76.43;97962.50;5211271;28;20208;-60
2021/08/18 16:58:32;;;;;;;2.55;2.40;;;19.10;99.90;;;20.06;76.44;97962.44;5211118;28;20558;-60
2021/08/18 17:01:05;;;;;;;3.00;2.80;;;19.00;99.90;;;20.02;76.86;97958.00;5217934;28;20239;-54
2021/08/18 17:03:42;;;;;;;2.40;2.28;;;19.00;99.90;;;19.97;77.48;97957.03;5208079;28;20209;-60
2021/08/18 17:06:15;;;;;;;2.63;2.42;;;18.90;99.90;;;19.97;78.00;97957.03;5206981;28;20201;-58
2021/08/18 17:08:49;;;;;;;2.50;2.40;;;18.90;99.90;;;19.94;79.37;97951.75;5208230;28;20714;-58
2021/08/18 17:11:23;;;;;;;2.75;2.55;;;18.90;99.90;;;19.88;80.49;97959.41;5216539;28;20202;-60
2021/08/18 17:13:56;;;;;;;2.58;2.40;;;18.90;99.90;;;19.91;81.25;97962.94;5211096;28;20225;-60
2021/08/18 17:16:29;;;;;;;3.38;2.30;;;18.90;99.90;;;19.94;82.17;97952.63;5218445;28;21081;-60
2021/08/18 17:19:02;;;;;;;2.97;2.78;;;18.90;99.90;;;19.97;82.24;97952.72;5213671;28;20688;-59
2021/08/18 17:21:35;;;;;;;2.70;2.50;;;19.00;99.90;;;19.95;82.17;97948.34;5212967;28;20197;-60
2021/08/18 17:24:10;;;;;;;3.00;2.80;;;18.90;99.90;;;19.92;82.31;97953.47;5215599;28;20228;-60
2021/08/18 17:26:44;;;;;;;2.55;2.35;;;18.90;99.90;;;19.87;82.79;97955.97;5215796;28;20203;-60
2021/08/18 17:29:17;;;;;;;2.70;2.47;;;18.90;99.90;;;19.84;83.35;97957.63;5208713;28;20217;-57
2021/08/18 17:31:50;;;;;;;2.70;2.50;;;18.90;99.90;;;19.88;83.17;97954.22;5213111;28;20198;-57
2021/08/18 17:34:24;;;;;;;2.45;2.20;;;18.90;99.90;;;19.87;83.18;97953.34;5219204;28;21576;-57
2021/08/18 17:36:57;;;;;;;3.97;2.30;;;18.90;99.90;;;19.87;82.48;97970.66;5213309;28;20665;-59
2021/08/18 17:39:30;;;;;;;2.55;2.35;;;18.80;99.90;;;19.78;82.97;97961.81;5217689;28;20219;-60
2021/08/18 17:42:06;;;;;;;2.40;2.30;;;18.80;99.90;;;19.76;83.79;97958.31;5214603;28;20200;-60
2021/08/18 17:44:39;;;;;;;2.60;2.40;;;18.80;99.90;;;19.77;84.01;97967.84;5219531;28;20672;-59
2021/08/18 17:47:12;;;;;;;2.70;2.50;;;18.80;99.90;;;19.74;84.50;97965.19;5216913;28;20209;-61
2021/08/18 17:49:45;;;;;;;4.13;2.67;;;18.70;99.90;;;19.73;84.59;97962.56;5213352;28;20215;-60
2021/08/18 17:52:18;;;;;;;2.63;2.42;;;18.70;99.90;;;19.66;85.15;97953.78;5211731;28;20216;-60
2021/08/18 17:54:51;;;;;;;2.40;2.30;;;18.60;99.90;;;19.58;86.21;97960.47;5213019;28;20202;-61
2021/08/18 17:57:26;;;;;;;2.53;2.33;;;18.60;99.90;;;19.59;85.94;97959.59;5212076;28;20218;-59
2021/08/18 17:59:59;;;;;;;2.78;2.58;;;18.60;99.90;;;19.51;86.59;97961.13;5218711;28;20725;-60
2021/08/18 18:02:32;;;;;;;2.53;2.40;;;18.50;99.90;;;19.50;86.96;97964.59;5206984;28;20225;-61
2021/08/18 18:05:07;;;;;;;3.22;2.90;;;18.50;99.90;;;19.50;86.44;97956.81;5209028;28;20293;-61
2021/08/18 18:07:40;;;;;;;2.88;2.65;;;18.50;99.90;;;19.46;86.68;97962.75;5211746;28;20224;-60
2021/08/18 18:10:14;;;;;;;2.60;2.50;;;18.50;99.90;;;19.41;86.63;97960.06;5214734;28;20236;-60
2021/08/18 18:12:49;;;;;;;2.45;2.25;;;18.40;99.90;;;19.41;85.92;97966.97;5204985;28;20226;-60
2021/08/18 18:15:22;;;;;;;3.08;2.83;;;18.40;99.90;;;19.32;86.37;97971.09;5210188;28;20221;-61
2021/08/18 18:17:55;;;;;;;3.03;2.70;;;18.30;99.90;;;19.29;86.04;97962.38;5207265;28;20228;-60
2021/08/18 18:20:28;;;;;;;2.63;2.50;;;18.30;99.90;;;19.23;86.25;97964.78;5209582;28;20208;-60
2021/08/18 18:23:06;;;;;;;2.40;2.20;;;18.20;99.90;;;19.12;86.64;97961.94;5212186;28;20206;-60
2021/08/18 18:25:39;;;;;;;2.75;2.42;;;18.20;99.90;;;19.11;86.58;97975.72;5210179;28;20658;-58
2021/08/18 18:28:13;;;;;;;2.70;2.40;;;18.10;99.90;;;19.06;87.30;97972.16;5211106;28;20591;-58
2021/08/18 18:30:48;;;;;;;2.65;2.45;;;18.10;99.90;;;19.02;87.28;97967.72;5220501;28;20724;-59
2021/08/18 18:33:21;;;;;;;3.28;2.50;;;18.10;99.90;;;19.02;87.57;97972.91;5210302;28;20224;-61
2021/08/18 18:35:54;;;;;;;2.55;2.33;;;18.10;99.90;;;18.97;88.01;97966.72;5204122;28;20205;-58
2021/08/18 18:38:27;;;;;;;3.17;2.60;;;18.00;99.90;;;18.89;88.49;97970.00;5208389;28;20224;-57
2021/08/18 18:41:01;;;;;;;2.83;2.63;;;17.90;99.90;;;18.90;88.59;97978.66;5211385;28;20208;-60
2021/08/18 18:43:36;;;;;;;2.90;2.70;;;17.90;99.90;;;18.88;89.16;97968.25;5212641;28;20291;-60
2021/08/18 18:46:09;;;;;;;2.92;2.72;;;17.90;99.90;;;18.83;89.52;97977.63;5212708;28;20220;-61
2021/08/18 18:48:42;;;;;;;3.25;3.03;;;17.90;99.90;;;18.80;90.09;97980.13;5204935;28;20220;-60
2021/08/18 18:51:15;;;;;;;3.38;2.90;;;17.90;99.90;;;18.69;90.55;97974.63;5212758;28;20205;-60
2021/08/18 18:53:48;;;;;;;2.92;2.72;;;17.80;99.90;;;18.76;90.20;97987.78;5213320;28;20263;-60
2021/08/18 18:56:21;;;;;;;3.17;2.88;;;17.80;99.90;;;18.80;90.25;97990.50;5207774;28;20557;-57
2021/08/18 18:58:55;;;;;;;2.67;2.47;;;17.80;99.90;;;18.78;90.55;97991.28;5206746;28;20221;-60
2021/08/18 19:01:29;;;;;;;2.65;2.50;;;17.80;99.90;;;18.75;91.30;97986.91;5213809;28;20744;-60
2021/08/18 19:04:02;;;;;;;3.00;2.80;;;17.80;99.90;;;18.73;90.84;97988.53;5215739;28;20197;-60
2021/08/18 19:06:35;;;;;;;3.15;2.53;;;17.80;99.90;;;18.69;90.38;97999.66;5213050;28;20656;-60
2021/08/18 19:09:08;;;;;;;3.53;2.80;;;17.80;99.90;;;18.67;90.13;97993.53;5207788;28;20239;-60
2021/08/18 19:11:46;;;;;;;3.13;2.90;;;17.70;99.90;;;18.63;89.98;97991.72;5212999;28;20458;-60
2021/08/18 19:14:24;;;;;;;4.05;2.88;;;17.70;99.90;;;18.62;90.24;97995.13;5202254;28;20224;-60
2021/08/18 19:16:57;;;;;;;2.85;2.65;;;17.70;99.90;;;18.57;90.81;98004.47;5215362;28;20246;-57
2021/08/18 19:19:30;;;;;;;2.70;2.50;;;17.60;99.90;;;18.53;91.37;98000.94;5205987;28;20204;-60
2021/08/18 19:22:04;;;;;;;3.10;2.90;;;17.60;99.90;;;18.52;91.90;98006.06;5208702;28;20209;-59
2021/08/18 19:24:37;;;;;;;3.10;2.80;;;17.60;99.90;;;18.51;92.17;98001.72;5209512;28;20208;-60
2021/08/18 19:27:10;;;;;;;2.85;2.63;;;17.60;99.90;;;18.51;92.67;98007.75;5217773;28;20197;-60
2021/08/18 19:29:45;;;;;;;4.10;2.83;;;17.60;99.90;;;18.49;92.82;98001.69;5208224;28;20194;-59
2021/08/18 19:32:17;;;;;;;3.00;2.80;;;17.60;99.90;;;18.45;93.77;97997.25;5216046;28;20675;-60
2021/08/18 19:34:50;;;;;;;3.25;2.97;;;17.60;99.90;;;18.49;92.88;98013.75;5207000;28;20213;-60
2021/08/18 19:37:23;;;;;;;3.60;3.30;;;17.60;99.90;;;18.48;91.99;98006.81;5216428;28;20688;-57
2021/08/18 19:39:56;;;;;;;3.30;3.00;;;17.60;99.90;;;18.44;92.17;98008.44;5213693;28;20198;-60
2021/08/18 19:42:30;;;;;;;3.47;3.17;;;17.50;99.90;;;18.41;92.07;98006.63;5213087;28;20585;-60
2021/08/18 19:45:06;;;;;;;3.22;3.03;;;17.50;99.90;;;18.43;91.84;98012.75;5217670;28;20200;-60
2021/08/18 19:47:40;;;;;;;3.40;3.10;;;17.50;99.90;;;18.40;92.28;98012.66;5214420;28;20697;-60
2021/08/18 19:50:13;;;;;;;3.22;2.95;;;17.50;99.90;;;18.45;92.37;98018.81;5210743;28;20193;-58
2021/08/18 19:52:47;;;;;;;3.20;3.00;;;17.50;99.90;;;18.35;94.12;98011.66;5213062;28;20209;-58
2021/08/18 19:55:21;;;;;;;4.28;3.20;;;17.50;99.90;;;18.28;95.81;98014.00;5207535;28;20311;-59
2021/08/18 19:57:54;;;;;;;3.40;3.10;;;17.50;99.90;;;18.27;95.56;98010.53;5215655;28;20681;-59
2021/08/18 20:00:29;;;;;;;3.38;2.92;;;17.50;99.90;;;18.27;96.21;98010.53;5206092;28;20190;-60
2021/08/18 20:03:02;;;;;;;3.53;3.30;;;17.40;99.90;;;18.14;96.65;98003.25;5210984;28;20207;-58
2021/08/18 20:05:36;;;;;;;3.03;2.83;;;17.40;99.90;;;18.13;97.45;97996.31;5220669;28;20221;-60
2021/08/18 20:08:09;;;;;;;2.88;2.65;;;17.40;99.90;;;18.12;97.67;98000.63;5206086;28;20222;-60
2021/08/18 20:10:42;;;;;;;3.13;2.92;;;17.40;99.90;;;18.11;97.83;97995.38;5208645;28;20785;-59
2021/08/18 20:13:15;;;;;;;3.30;3.00;;;17.40;99.90;;;18.11;96.70;98001.44;5219007;28;20323;-58
2021/08/18 20:15:49;;;;;;;3.67;3.38;;;17.30;99.90;;;18.12;95.96;98000.63;5210260;28;20566;-60
2021/08/18 20:18:22;;;;;;;4.00;3.70;;;17.30;99.90;;;18.11;95.46;98000.56;5218090;28;20225;-59
2021/08/18 20:20:55;;;;;;;3.80;3.60;;;17.30;99.90;;;18.10;94.79;98001.41;5226643;28;20207;-58
2021/08/18 20:23:28;;;;;;;3.67;3.38;;;17.30;99.90;;;18.08;95.24;97995.31;5208606;28;20206;-59
2021/08/18 20:26:01;;;;;;;3.80;3.38;;;17.30;99.90;;;18.06;94.44;98000.44;5216034;28;20219;-59
2021/08/18 20:28:34;;;;;;;4.00;3.60;;;17.30;99.90;;;18.06;94.40;97997.00;5219984;28;20584;-60
2021/08/18 20:31:12;;;;;;;3.20;3.00;;;17.20;99.90;;;18.08;93.60;98000.47;5208894;28;20208;-60
2021/08/18 20:33:58;;;;;;;3.70;3.40;;;17.20;99.90;;;18.06;93.31;98003.03;5217802;28;20221;-59
2021/08/18 20:36:32;;;;;;;3.38;3.05;;;17.20;99.90;;;18.05;92.84;98000.38;5209458;28;20205;-58
2021/08/18 20:39:05;;;;;;;3.58;3.28;;;17.20;99.90;;;18.02;93.05;97996.88;5214841;28;20312;-58
2021/08/18 20:41:38;;;;;;;3.50;3.20;;;17.20;99.90;;;18.07;92.63;98003.91;5221818;22;20583;-63
2021/08/18 20:44:14;;;;;;;3.15;2.95;;;17.20;99.90;;;18.08;92.56;98001.34;5206132;28;20240;-62
2021/08/18 20:46:49;;;;;;;3.72;3.42;;;17.20;99.90;;;18.07;92.71;97998.72;5199249;28;20529;-63
2021/08/18 20:49:22;;;;;;;4.07;3.45;;;17.20;99.90;;;18.05;92.93;98002.97;5206010;28;20288;-61
2021/08/18 20:51:55;;;;;;;4.60;3.30;;;17.20;99.90;;;18.05;92.48;98003.84;5206947;28;20249;-64
2021/08/18 20:54:28;;;;;;;3.20;3.00;;;17.20;99.90;;;18.04;92.49;98003.81;5188988;28;20224;-63
2021/08/18 20:57:01;;;;;;;3.33;3.13;;;17.10;99.90;;;17.99;92.23;97995.91;5198138;28;20382;-65
2021/08/18 20:59:34;;;;;;;3.78;3.42;;;17.10;99.90;;;17.99;92.03;98001.06;5205501;28;20202;-63
2021/08/18 21:02:09;;;;;;;3.25;3.05;;;17.10;99.90;;;17.98;91.53;97997.63;5201356;28;20218;-64
2021/08/18 21:04:42;;;;;;;3.67;3.28;;;17.10;99.90;;;17.97;91.88;98003.63;5206619;28;20247;-62
2021/08/18 21:07:15;;;;;;;4.18;3.47;;;17.10;99.90;;;17.91;92.75;97998.28;5205786;28;20198;-62
2021/08/18 21:09:48;;;;;;;3.42;3.08;;;17.10;99.90;;;17.89;93.50;97997.34;5199766;28;20202;-62
2021/08/18 21:12:22;;;;;;;3.33;3.00;;;17.00;99.90;;;17.85;94.00;97992.91;5198694;28;20217;-65
2021/08/18 21:14:55;;;;;;;3.47;3.15;;;17.00;99.90;;;17.83;93.72;97991.09;5198242;28;20251;-61
2021/08/18 21:17:30;;;;;;;3.65;3.35;;;17.00;99.90;;;17.83;93.86;97994.59;5206034;28;20193;-64
2021/08/18 21:20:04;;;;;;;4.85;3.25;;;17.00;99.90;;;17.84;94.10;97992.88;5206652;28;20194;-63
2021/08/18 21:22:37;;;;;;;3.40;3.10;;;17.00;99.90;;;17.82;94.72;97992.81;5205579;28;20224;-63
2021/08/18 21:25:11;;;;;;;3.33;3.03;;;17.00;99.90;;;17.81;94.55;97990.19;5205684;28;20562;-62
2021/08/18 21:27:44;;;;;;;3.03;2.83;;;17.00;99.90;;;17.81;94.28;97985.88;5204111;28;20211;-62
2021/08/18 21:30:17;;;;;;;5.88;3.33;;;16.90;99.90;;;17.77;94.53;97989.19;5203028;28;20670;-62
2021/08/18 21:32:51;;;;;;;3.97;3.60;;;16.90;99.90;;;17.72;94.13;97990.75;5205890;28;20192;-65
2021/08/18 21:35:25;;;;;;;4.88;3.60;;;16.90;99.90;;;17.62;94.94;97989.56;5205408;28;20220;-63
2021/08/18 21:37:58;;;;;;;3.50;3.20;;;16.80;99.90;;;17.66;94.84;97983.69;5197504;28;20197;-66
2021/08/18 21:40:31;;;;;;;3.70;3.40;;;16.90;99.90;;;17.60;95.54;97983.50;5196225;28;20305;-63
2021/08/18 21:43:05;;;;;;;3.70;3.50;;;16.80;99.90;;;17.57;96.04;97986.00;5197540;28;20201;-65
2021/08/18 21:45:38;;;;;;;3.88;3.58;;;16.80;99.90;;;17.48;96.75;97989.16;5205390;28;20202;-62
2021/08/18 21:48:14;;;;;;;4.10;3.75;;;16.70;99.90;;;17.46;96.62;97993.41;5205907;28;20251;-62
2021/08/18 21:50:49;;;;;;;3.70;3.40;;;16.60;99.90;;;17.44;96.52;97995.03;5205528;28;20577;-64
2021/08/18 21:53:22;;;;;;;5.55;4.10;;;16.60;99.90;;;17.41;97.08;97991.50;5200577;28;20284;-63
2021/08/18 21:55:55;;;;;;;4.18;3.78;;;16.60;99.90;;;17.38;97.13;97988.81;5198187;28;20316;-62
2021/08/18 21:58:28;;;;;;;3.55;3.35;;;16.60;99.90;;;17.36;97.15;97991.31;5203464;28;20194;-63
2021/08/18 22:01:01;;;;;;;4.10;3.80;;;16.50;99.90;;;17.34;97.19;97987.84;5205115;28;20312;-62
2021/08/18 22:03:36;;;;;;;4.30;3.72;;;16.50;99.90;;;17.35;96.82;97989.59;5203024;28;20213;-63
2021/08/18 22:06:09;;;;;;;4.18;3.58;;;16.50;99.90;;;17.33;97.15;97993.81;5200432;28;20209;-61
2021/08/18 22:08:42;;;;;;;3.90;3.28;;;16.50;99.90;;;17.33;97.73;97997.28;5204797;28;20198;-63
2021/08/18 22:11:15;;;;;;;5.90;4.30;;;16.50;99.90;;;17.36;97.17;97988.75;5201394;28;20313;-63
2021/08/18 22:13:48;;;;;;;4.10;3.70;;;16.50;99.90;;;17.31;97.06;97996.38;5201796;28;20741;-63
2021/08/18 22:16:21;;;;;;;3.97;3.67;;;16.50;99.90;;;17.28;98.14;97992.78;5205335;28;20213;-65
2021/08/18 22:18:55;;;;;;;3.80;3.60;;;16.60;99.90;;;17.24;98.63;97993.53;5205576;28;20205;-62
2021/08/18 22:21:28;;;;;;;3.30;3.10;;;16.50;99.90;;;17.32;98.59;97999.81;5190013;28;20214;-63
2021/08/18 22:24:01;;;;;;;3.70;3.40;;;16.60;99.90;;;17.31;98.30;98000.63;5197975;28;20201;-64
2021/08/18 22:26:34;;;;;;;3.67;3.25;;;16.60;99.90;;;17.31;97.98;98000.63;5205397;28;20198;-63
2021/08/18 22:29:27;;;;;;;3.72;3.50;;;16.50;99.90;;;17.32;97.60;98000.69;5192125;28;20207;-63
2021/08/18 22:32:00;;;;;;;3.80;3.50;;;16.50;99.90;;;17.32;97.35;97997.25;5200159;28;20296;-63
2021/08/18 22:34:35;;;;;;;3.28;3.08;;;16.50;99.90;;;17.29;97.92;97994.56;5205287;28;20201;-63
2021/08/18 22:37:08;;;;;;;3.78;3.47;;;16.60;99.90;;;17.27;98.44;97996.19;5190375;28;20228;-65
2021/08/18 22:39:41;;;;;;;3.67;3.45;;;16.60;99.90;;;17.27;97.76;97997.06;5204229;28;20218;-62
2021/08/18 22:42:14;;;;;;;4.32;3.55;;;16.50;99.90;;;17.28;98.20;97992.78;5197301;28;20240;-62
2021/08/18 22:44:47;;;;;;;3.72;3.42;;;16.50;99.90;;;17.21;97.88;98003.75;5201685;28;20212;-62
2021/08/18 22:47:20;;;;;;;3.15;2.95;;;16.50;99.90;;;17.20;97.63;97999.44;5204916;28;20665;-63
2021/08/18 22:49:54;;;;;;;4.82;3.67;;;16.40;99.90;;;17.20;97.46;97999.44;5195335;28;20198;-64
2021/08/18 22:52:27;;;;;;;3.72;3.42;;;16.40;99.90;;;17.15;97.20;98004.44;5198154;28;20217;-63
2021/08/18 22:55:00;;;;;;;3.67;3.47;;;16.40;99.90;;;17.13;97.45;97998.31;5204505;28;20194;-63
2021/08/18 22:57:34;;;;;;;4.82;3.50;;;16.40;99.90;;;17.14;97.78;97999.19;5201896;28;20202;-67
2021/08/18 23:00:09;;;;;;;3.83;3.55;;;16.30;99.90;;;17.10;97.22;97993.94;5203198;28;20260;-63
2021/08/18 23:02:42;;;;;;;4.45;3.65;;;16.30;99.90;;;17.06;97.33;97996.38;5201889;28;20645;-63
2021/08/18 23:05:17;;;;;;;4.45;3.42;;;16.30;99.90;;;17.06;97.56;97992.09;5203818;28;20236;-62
2021/08/18 23:07:50;;;;;;;3.75;3.53;;;16.20;99.90;;;17.01;97.06;97997.91;5204208;28;20201;-67
2021/08/18 23:10:23;;;;;;;3.50;3.30;;;16.20;99.90;;;16.96;97.99;98002.91;5203095;28;20202;-65
2021/08/18 23:12:56;;;;;;;4.03;3.55;;;16.20;99.90;;;16.98;97.94;98002.97;5203711;28;20200;-64
2021/08/18 23:15:29;;;;;;;4.20;3.42;;;16.20;99.90;;;16.99;97.83;98008.19;5206909;28;20218;-63
2021/08/18 23:18:02;;;;;;;3.97;3.67;;;16.20;99.90;;;17.01;97.98;98008.25;5207466;28;20229;-62
2021/08/18 23:20:36;;;;;;;5.20;3.47;;;16.30;99.90;;;17.01;97.69;98001.38;5202221;28;20533;-63
2021/08/18 23:23:10;;;;;;;3.83;3.38;;;16.20;99.90;;;17.05;97.38;97999.75;5201102;28;20197;-63
2021/08/18 23:25:43;;;;;;;3.67;3.35;;;16.20;99.90;;;17.04;98.04;98009.22;5206456;28;20195;-66
2021/08/18 23:28:17;;;;;;;3.92;3.55;;;16.20;99.90;;;17.08;97.49;98005.03;5204190;28;20201;-63
2021/08/18 23:30:50;;;;;;;3.60;3.40;;;16.20;99.90;;;17.03;97.20;98002.31;5207129;28;20232;-64
2021/08/18 23:33:23;;;;;;;3.90;3.60;;;16.20;99.90;;;17.02;96.70;97997.94;5199710;28;20661;-62
2021/08/18 23:35:58;;;;;;;3.95;3.65;;;16.20;99.90;;;16.98;97.72;98001.28;5208469;28;20233;-63
2021/08/18 23:38:32;;;;;;;3.72;3.30;;;16.20;99.90;;;17.01;96.92;98003.97;5207158;28;20211;-63
2021/08/18 23:41:05;;;;;;;3.90;3.60;;;16.20;99.90;;;16.89;97.65;97998.38;5206473;28;20228;-64
2021/08/18 23:43:38;;;;;;;3.38;3.08;;;16.10;99.90;;;16.88;98.25;98001.78;5206642;28;20198;-62
2021/08/18 23:46:11;;;;;;;3.95;3.65;;;16.10;99.90;;;16.91;98.31;97996.72;5207594;28;20668;-62
2021/08/18 23:48:44;;;;;;;4.50;3.50;;;16.20;99.90;;;16.93;98.59;97994.19;5207883;28;20654;-62
2021/08/18 23:51:23;;;;;;;3.42;3.10;;;16.20;99.90;;;16.96;98.31;97986.56;5207857;28;20241;-63
2021/08/18 23:53:56;;;;;;;3.08;2.88;;;16.20;99.90;;;16.99;97.70;97991.81;5206621;28;20201;-64
2021/08/18 23:56:29;;;;;;;3.47;3.22;;;16.20;99.90;;;16.98;98.07;97983.19;5205015;28;20218;-63
2021/08/18 23:59:02;;;;;;;3.42;3.22;;;16.20;99.90;;;16.98;97.70;97978.03;5202705;28;20201;-65
